sensor_id;sensor_type;location;lat;lon;timestamp;pressure;altitude;pressure_sealevel;temperature;humidity
28606;BME280;46498;49.968;7.754;2023-01-28T00:03:37;97807.00;;;0.61;100.00
28606;BME280;46498;49.968;7.754;2023-01-28T00:08:40;97804.00;;;0.73;100.00
28606;BME280;46498;49.968;7.754;2023-01-28T00:13:41;97807.00;;;0.66;100.00
28606;BME280;46498;49.968;7.754;2023-01-28T00:18:42;97806.00;;;0.60;100.00
28606;BME280;46498;49.968;7.754;2023-01-28T00:23:49;97793.00;;;0.56;100.00
28606;BME280;46498;49.968;7.754;2023-01-28T00:28:51;97792.00;;;0.65;100.00
28606;BME280;46498;49.968;7.754;2023-01-28T00:33:54;97799.00;;;0.66;100.00
28606;BME280;46498;49.968;7.754;2023-01-28T00:38:57;97800.00;;;0.71;100.00
28606;BME280;46498;49.968;7.754;2023-01-28T00:43:58;97801.00;;;0.69;100.00
28606;BME280;46498;49.968;7.754;2023-01-28T00:48:59;97793.00;;;0.73;100.00
28606;BME280;46498;49.968;7.754;2023-01-28T00:54:01;97800.00;;;0.67;100.00
28606;BME280;46498;49.968;7.754;2023-01-28T00:59:02;97802.00;;;0.58;100.00
28606;BME280;46498;49.968;7.754;2023-01-28T01:04:03;97795.00;;;0.64;100.00
28606;BME280;46498;49.968;7.754;2023-01-28T01:09:10;97796.00;;;0.54;100.00
28606;BME280;46498;49.968;7.754;2023-01-28T01:14:11;97796.00;;;0.57;100.00
28606;BME280;46498;49.968;7.754;2023-01-28T01:19:13;97798.00;;;0.59;100.00
28606;BME280;46498;49.968;7.754;2023-01-28T01:24:16;97806.00;;;0.50;100.00
28606;BME280;46498;49.968;7.754;2023-01-28T01:29:17;97806.00;;;0.47;100.00
28606;BME280;46498;49.968;7.754;2023-01-28T01:34:18;97809.00;;;0.44;100.00
28606;BME280;46498;49.968;7.754;2023-01-28T01:39:19;97811.00;;;0.45;100.00
28606;BME280;46498;49.968;7.754;2023-01-28T01:53:17;97835.00;;;0.50;100.00
28606;BME280;46498;49.968;7.754;2023-01-28T01:58:23;97823.00;;;0.41;100.00
28606;BME280;46498;49.968;7.754;2023-01-28T02:03:30;97825.00;;;0.45;100.00
28606;BME280;46498;49.968;7.754;2023-01-28T02:08:34;97822.00;;;0.42;100.00
28606;BME280;46498;49.968;7.754;2023-01-28T02:13:39;97823.00;;;0.41;100.00
28606;BME280;46498;49.968;7.754;2023-01-28T02:18:41;97823.00;;;0.43;100.00
28606;BME280;46498;49.968;7.754;2023-01-28T02:31:06;97821.00;;;0.38;100.00
28606;BME280;46498;49.968;7.754;2023-01-28T02:36:59;97818.00;;;0.31;100.00
28606;BME280;46498;49.968;7.754;2023-01-28T02:42:09;97826.00;;;0.36;100.00
28606;BME280;46498;49.968;7.754;2023-01-28T02:47:14;97823.00;;;0.33;100.00
28606;BME280;46498;49.968;7.754;2023-01-28T02:53:15;97828.00;;;0.32;100.00
28606;BME280;46498;49.968;7.754;2023-01-28T03:04:34;97844.00;;;0.29;100.00
28606;BME280;46498;49.968;7.754;2023-01-28T03:09:37;97840.00;;;0.41;100.00
28606;BME280;46498;49.968;7.754;2023-01-28T03:14:40;97848.00;;;0.38;100.00
28606;BME280;46498;49.968;7.754;2023-01-28T03:20:02;97849.00;;;0.42;100.00
28606;BME280;46498;49.968;7.754;2023-01-28T03:25:23;97855.00;;;0.42;100.00
28606;BME280;46498;49.968;7.754;2023-01-28T03:30:49;97860.00;;;0.42;100.00
28606;BME280;46498;49.968;7.754;2023-01-28T03:36:22;97861.00;;;0.35;100.00
28606;BME280;46498;49.968;7.754;2023-01-28T03:43:39;97865.00;;;0.20;100.00
28606;BME280;46498;49.968;7.754;2023-01-28T03:48:40;97864.00;;;0.24;100.00
28606;BME280;46498;49.968;7.754;2023-01-28T03:53:42;97885.00;;;0.29;100.00
28606;BME280;46498;49.968;7.754;2023-01-28T03:58:44;97884.00;;;0.35;100.00
28606;BME280;46498;49.968;7.754;2023-01-28T04:03:57;97892.00;;;0.17;100.00
28606;BME280;46498;49.968;7.754;2023-01-28T04:09:01;97895.00;;;0.27;100.00
28606;BME280;46498;49.968;7.754;2023-01-28T04:14:05;97891.00;;;0.36;100.00
28606;BME280;46498;49.968;7.754;2023-01-28T04:19:15;97894.00;;;0.32;100.00
28606;BME280;46498;49.968;7.754;2023-01-28T04:24:19;97906.00;;;0.20;100.00
28606;BME280;46498;49.968;7.754;2023-01-28T04:29:20;97903.00;;;0.04;100.00
28606;BME280;46498;49.968;7.754;2023-01-28T04:34:22;97902.00;;;-0.03;100.00
28606;BME280;46498;49.968;7.754;2023-01-28T04:39:42;97901.00;;;0.12;100.00
28606;BME280;46498;49.968;7.754;2023-01-28T04:46:04;97900.00;;;0.12;100.00
28606;BME280;46498;49.968;7.754;2023-01-28T04:51:14;97903.00;;;0.14;100.00
28606;BME280;46498;49.968;7.754;2023-01-28T04:56:24;97907.00;;;0.24;100.00
28606;BME280;46498;49.968;7.754;2023-01-28T05:01:25;97905.00;;;0.18;100.00
28606;BME280;46498;49.968;7.754;2023-01-28T05:06:27;97905.00;;;0.13;100.00
28606;BME280;46498;49.968;7.754;2023-01-28T05:11:30;97923.00;;;0.09;100.00
28606;BME280;46498;49.968;7.754;2023-01-28T05:16:34;97929.00;;;0.15;100.00
28606;BME280;46498;49.968;7.754;2023-01-28T05:21:36;97932.00;;;0.25;100.00
28606;BME280;46498;49.968;7.754;2023-01-28T05:26:42;97927.00;;;0.18;100.00
28606;BME280;46498;49.968;7.754;2023-01-28T05:31:44;97927.00;;;0.07;100.00
28606;BME280;46498;49.968;7.754;2023-01-28T05:36:45;97929.00;;;0.13;100.00
28606;BME280;46498;49.968;7.754;2023-01-28T05:42:03;97930.00;;;0.15;100.00
28606;BME280;46498;49.968;7.754;2023-01-28T05:47:06;97942.00;;;0.18;100.00
28606;BME280;46498;49.968;7.754;2023-01-28T05:52:21;97924.00;;;0.05;100.00
28606;BME280;46498;49.968;7.754;2023-01-28T05:57:22;97931.00;;;-0.01;100.00
28606;BME280;46498;49.968;7.754;2023-01-28T06:02:24;97937.00;;;-0.12;100.00
28606;BME280;46498;49.968;7.754;2023-01-28T06:07:28;97938.00;;;-0.10;100.00
28606;BME280;46498;49.968;7.754;2023-01-28T06:12:30;97952.00;;;-0.11;100.00
28606;BME280;46498;49.968;7.754;2023-01-28T06:18:07;97961.00;;;0.01;100.00
28606;BME280;46498;49.968;7.754;2023-01-28T06:23:08;97959.00;;;-0.05;100.00
28606;BME280;46498;49.968;7.754;2023-01-28T06:28:09;97961.00;;;-0.08;100.00
28606;BME280;46498;49.968;7.754;2023-01-28T06:33:11;97957.00;;;-0.14;100.00
28606;BME280;46498;49.968;7.754;2023-01-28T06:38:12;97962.00;;;-0.17;100.00
28606;BME280;46498;49.968;7.754;2023-01-28T06:43:13;97964.00;;;-0.07;100.00
28606;BME280;46498;49.968;7.754;2023-01-28T06:48:14;97977.00;;;-0.32;100.00
28606;BME280;46498;49.968;7.754;2023-01-28T06:53:16;97973.00;;;-0.31;100.00
28606;BME280;46498;49.968;7.754;2023-01-28T06:58:17;97974.00;;;-0.29;100.00
28606;BME280;46498;49.968;7.754;2023-01-28T07:03:18;97984.00;;;-0.37;100.00
28606;BME280;46498;49.968;7.754;2023-01-28T07:08:19;97988.00;;;-0.24;100.00
28606;BME280;46498;49.968;7.754;2023-01-28T07:13:20;97993.00;;;-0.19;100.00
28606;BME280;46498;49.968;7.754;2023-01-28T07:18:21;98002.00;;;-0.10;100.00
28606;BME280;46498;49.968;7.754;2023-01-28T07:23:22;97993.00;;;-0.21;100.00
28606;BME280;46498;49.968;7.754;2023-01-28T07:28:23;97991.00;;;-0.12;100.00
28606;BME280;46498;49.968;7.754;2023-01-28T07:33:23;97993.00;;;-0.16;100.00
28606;BME280;46498;49.968;7.754;2023-01-28T07:38:24;97988.00;;;-0.19;100.00
28606;BME280;46498;49.968;7.754;2023-01-28T07:43:25;97992.00;;;-0.15;100.00
28606;BME280;46498;49.968;7.754;2023-01-28T07:48:26;97993.00;;;-0.24;100.00
28606;BME280;46498;49.968;7.754;2023-01-28T07:53:27;97992.00;;;-0.32;100.00
28606;BME280;46498;49.968;7.754;2023-01-28T07:58:27;97997.00;;;-0.25;100.00
28606;BME280;46498;49.968;7.754;2023-01-28T08:03:28;97997.00;;;-0.37;100.00
28606;BME280;46498;49.968;7.754;2023-01-28T08:08:29;97998.00;;;-0.28;100.00
28606;BME280;46498;49.968;7.754;2023-01-28T08:13:30;98008.00;;;-0.32;100.00
28606;BME280;46498;49.968;7.754;2023-01-28T08:18:31;98012.00;;;-0.33;100.00
28606;BME280;46498;49.968;7.754;2023-01-28T08:23:32;98014.00;;;-0.16;100.00
28606;BME280;46498;49.968;7.754;2023-01-28T08:28:35;98024.00;;;-0.20;100.00
28606;BME280;46498;49.968;7.754;2023-01-28T08:33:36;98018.00;;;-0.25;100.00
28606;BME280;46498;49.968;7.754;2023-01-28T08:38:37;98023.00;;;-0.26;100.00
28606;BME280;46498;49.968;7.754;2023-01-28T08:43:38;98022.00;;;-0.23;100.00
28606;BME280;46498;49.968;7.754;2023-01-28T08:48:39;98020.00;;;-0.27;100.00
28606;BME280;46498;49.968;7.754;2023-01-28T08:53:40;98021.00;;;-0.31;100.00
28606;BME280;46498;49.968;7.754;2023-01-28T08:58:41;98017.00;;;-0.29;100.00
28606;BME280;46498;49.968;7.754;2023-01-28T09:03:42;98030.00;;;-0.26;100.00
28606;BME280;46498;49.968;7.754;2023-01-28T09:08:43;98045.00;;;-0.33;100.00
28606;BME280;46498;49.968;7.754;2023-01-28T09:13:43;98030.00;;;-0.18;100.00
28606;BME280;46498;49.968;7.754;2023-01-28T09:18:44;98037.00;;;-0.27;100.00
28606;BME280;46498;49.968;7.754;2023-01-28T09:23:45;98042.00;;;-0.22;100.00
28606;BME280;46498;49.968;7.754;2023-01-28T09:28:46;98041.00;;;-0.11;100.00
28606;BME280;46498;49.968;7.754;2023-01-28T09:33:47;98047.00;;;0.01;100.00
28606;BME280;46498;49.968;7.754;2023-01-28T09:38:54;98051.00;;;0.00;100.00
28606;BME280;46498;49.968;7.754;2023-01-28T09:50:45;98055.00;;;0.08;100.00
28606;BME280;46498;49.968;7.754;2023-01-28T09:56:42;98070.00;;;0.07;100.00
28606;BME280;46498;49.968;7.754;2023-01-28T10:02:14;98080.00;;;0.10;100.00
28606;BME280;46498;49.968;7.754;2023-01-28T10:07:41;98076.00;;;0.11;100.00
28606;BME280;46498;49.968;7.754;2023-01-28T10:13:27;98080.00;;;0.00;100.00
28606;BME280;46498;49.968;7.754;2023-01-28T10:18:35;98083.00;;;0.17;100.00
28606;BME280;46498;49.968;7.754;2023-01-28T10:23:52;98094.00;;;0.21;100.00
28606;BME280;46498;49.968;7.754;2023-01-28T10:28:57;98097.00;;;0.29;100.00
28606;BME280;46498;49.968;7.754;2023-01-28T10:34:00;98099.00;;;0.49;100.00
28606;BME280;46498;49.968;7.754;2023-01-28T10:39:03;98103.00;;;0.55;100.00
28606;BME280;46498;49.968;7.754;2023-01-28T10:44:14;98101.00;;;0.52;100.00
28606;BME280;46498;49.968;7.754;2023-01-28T10:49:27;98095.00;;;0.50;100.00
28606;BME280;46498;49.968;7.754;2023-01-28T10:54:30;98091.00;;;0.34;99.57
28606;BME280;46498;49.968;7.754;2023-01-28T10:59:32;98103.00;;;0.32;100.00
28606;BME280;46498;49.968;7.754;2023-01-28T11:04:36;98101.00;;;0.34;99.53
28606;BME280;46498;49.968;7.754;2023-01-28T11:09:37;98105.00;;;0.40;99.22
28606;BME280;46498;49.968;7.754;2023-01-28T11:14:48;98095.00;;;0.26;100.00
28606;BME280;46498;49.968;7.754;2023-01-28T11:19:50;98105.00;;;0.33;99.06
28606;BME280;46498;49.968;7.754;2023-01-28T11:24:53;98104.00;;;0.46;99.56
28606;BME280;46498;49.968;7.754;2023-01-28T11:29:56;98104.00;;;0.52;97.64
28606;BME280;46498;49.968;7.754;2023-01-28T11:34:58;98098.00;;;0.34;97.29
28606;BME280;46498;49.968;7.754;2023-01-28T11:40:01;98090.00;;;0.30;98.03
28606;BME280;46498;49.968;7.754;2023-01-28T11:45:11;98090.00;;;0.33;99.68
28606;BME280;46498;49.968;7.754;2023-01-28T11:58:19;98081.00;;;0.45;98.89
28606;BME280;46498;49.968;7.754;2023-01-28T12:10:27;98075.00;;;0.32;100.00
28606;BME280;46498;49.968;7.754;2023-01-28T12:19:13;98083.00;;;0.27;99.19
28606;BME280;46498;49.968;7.754;2023-01-28T12:26:15;98067.00;;;0.38;97.82
28606;BME280;46498;49.968;7.754;2023-01-28T12:38:07;98072.00;;;0.89;100.00
28606;BME280;46498;49.968;7.754;2023-01-28T12:43:37;98059.00;;;0.61;100.00
28606;BME280;46498;49.968;7.754;2023-01-28T12:48:49;98066.00;;;0.47;97.65
28606;BME280;46498;49.968;7.754;2023-01-28T12:54:03;98065.00;;;0.43;96.17
28606;BME280;46498;49.968;7.754;2023-01-28T12:59:14;98058.00;;;0.27;97.59
28606;BME280;46498;49.968;7.754;2023-01-28T13:11:01;98053.00;;;0.20;97.24
28606;BME280;46498;49.968;7.754;2023-01-28T13:16:05;98057.00;;;0.08;97.62
28606;BME280;46498;49.968;7.754;2023-01-28T13:21:14;98051.00;;;0.25;96.52
28606;BME280;46498;49.968;7.754;2023-01-28T13:26:57;98068.00;;;0.18;97.95
28606;BME280;46498;49.968;7.754;2023-01-28T13:32:01;98077.00;;;0.08;97.90
28606;BME280;46498;49.968;7.754;2023-01-28T13:37:27;98077.00;;;0.25;96.76
28606;BME280;46498;49.968;7.754;2023-01-28T13:42:29;98081.00;;;0.14;96.22
28606;BME280;46498;49.968;7.754;2023-01-28T13:47:34;98095.00;;;0.20;94.89
28606;BME280;46498;49.968;7.754;2023-01-28T13:52:48;98092.00;;;0.01;95.84
28606;BME280;46498;49.968;7.754;2023-01-28T14:01:14;98090.00;;;-0.22;91.70
28606;BME280;46498;49.968;7.754;2023-01-28T14:15:18;98101.00;;;0.32;91.54
28606;BME280;46498;49.968;7.754;2023-01-28T14:20:29;98089.00;;;0.31;92.14
28606;BME280;46498;49.968;7.754;2023-01-28T14:26:14;98092.00;;;0.18;90.00
28606;BME280;46498;49.968;7.754;2023-01-28T14:31:26;98098.00;;;-0.09;90.62
28606;BME280;46498;49.968;7.754;2023-01-28T14:36:27;98099.00;;;-0.09;90.49
28606;BME280;46498;49.968;7.754;2023-01-28T14:41:28;98098.00;;;-0.09;90.36
28606;BME280;46498;49.968;7.754;2023-01-28T14:46:36;98087.00;;;-0.19;91.41
28606;BME280;46498;49.968;7.754;2023-01-28T15:03:17;98082.00;;;-0.35;90.95
28606;BME280;46498;49.968;7.754;2023-01-28T15:08:25;98089.00;;;-0.05;91.51
28606;BME280;46498;49.968;7.754;2023-01-28T15:13:29;98091.00;;;0.47;96.27
28606;BME280;46498;49.968;7.754;2023-01-28T15:18:35;98087.00;;;0.19;89.50
28606;BME280;46498;49.968;7.754;2023-01-28T15:23:39;98085.00;;;0.07;89.53
28606;BME280;46498;49.968;7.754;2023-01-28T15:28:42;98075.00;;;0.17;86.59
28606;BME280;46498;49.968;7.754;2023-01-28T15:33:44;98076.00;;;-0.33;89.70
28606;BME280;46498;49.968;7.754;2023-01-28T15:38:45;98075.00;;;-0.20;89.88
28606;BME280;46498;49.968;7.754;2023-01-28T15:43:47;98087.00;;;-0.43;87.09
28606;BME280;46498;49.968;7.754;2023-01-28T15:48:57;98086.00;;;-0.34;90.99
28606;BME280;46498;49.968;7.754;2023-01-28T15:54:02;98073.00;;;-0.38;90.24
28606;BME280;46498;49.968;7.754;2023-01-28T15:59:19;98073.00;;;-0.42;89.34
28606;BME280;46498;49.968;7.754;2023-01-28T16:04:24;98076.00;;;-0.57;86.23
28606;BME280;46498;49.968;7.754;2023-01-28T16:09:28;98096.00;;;-0.71;86.58
28606;BME280;46498;49.968;7.754;2023-01-28T16:14:42;98096.00;;;-0.54;88.76
28606;BME280;46498;49.968;7.754;2023-01-28T16:19:46;98111.00;;;-0.62;89.24
28606;BME280;46498;49.968;7.754;2023-01-28T16:24:50;98107.00;;;-0.45;90.56
28606;BME280;46498;49.968;7.754;2023-01-28T16:29:55;98119.00;;;-0.60;90.35
28606;BME280;46498;49.968;7.754;2023-01-28T16:34:56;98114.00;;;-0.55;90.40
28606;BME280;46498;49.968;7.754;2023-01-28T16:39:57;98123.00;;;-0.56;90.14
28606;BME280;46498;49.968;7.754;2023-01-28T16:45:02;98127.00;;;-0.60;91.01
28606;BME280;46498;49.968;7.754;2023-01-28T16:50:05;98128.00;;;-0.46;86.96
28606;BME280;46498;49.968;7.754;2023-01-28T16:55:09;98119.00;;;-0.40;88.24
28606;BME280;46498;49.968;7.754;2023-01-28T17:00:19;98117.00;;;-0.63;90.98
28606;BME280;46498;49.968;7.754;2023-01-28T17:05:22;98123.00;;;-0.54;91.23
28606;BME280;46498;49.968;7.754;2023-01-28T17:10:23;98123.00;;;-0.56;92.83
28606;BME280;46498;49.968;7.754;2023-01-28T17:15:25;98123.00;;;-0.51;93.82
28606;BME280;46498;49.968;7.754;2023-01-28T17:20:26;98133.00;;;-0.58;93.66
28606;BME280;46498;49.968;7.754;2023-01-28T17:25:27;98136.00;;;-0.43;94.16
28606;BME280;46498;49.968;7.754;2023-01-28T17:30:28;98142.00;;;-0.39;93.78
28606;BME280;46498;49.968;7.754;2023-01-28T17:35:29;98136.00;;;-0.43;93.48
28606;BME280;46498;49.968;7.754;2023-01-28T17:40:32;98134.00;;;-0.52;93.17
28606;BME280;46498;49.968;7.754;2023-01-28T17:45:38;98126.00;;;-0.74;92.22
28606;BME280;46498;49.968;7.754;2023-01-28T17:50:39;98131.00;;;-0.57;93.61
28606;BME280;46498;49.968;7.754;2023-01-28T17:55:40;98151.00;;;-0.52;93.74
28606;BME280;46498;49.968;7.754;2023-01-28T18:00:41;98170.00;;;-0.58;95.26
28606;BME280;46498;49.968;7.754;2023-01-28T18:05:42;98186.00;;;-0.63;95.73
28606;BME280;46498;49.968;7.754;2023-01-28T18:10:43;98182.00;;;-0.63;95.11
28606;BME280;46498;49.968;7.754;2023-01-28T18:15:44;98182.00;;;-0.73;95.60
28606;BME280;46498;49.968;7.754;2023-01-28T18:20:45;98196.00;;;-0.66;94.35
28606;BME280;46498;49.968;7.754;2023-01-28T18:25:46;98198.00;;;-0.69;94.32
28606;BME280;46498;49.968;7.754;2023-01-28T18:30:47;98221.00;;;-0.68;93.21
28606;BME280;46498;49.968;7.754;2023-01-28T18:35:48;98230.00;;;-0.68;93.52
28606;BME280;46498;49.968;7.754;2023-01-28T18:40:53;98216.00;;;-0.58;93.65
28606;BME280;46498;49.968;7.754;2023-01-28T18:45:55;98218.00;;;-0.55;94.29
28606;BME280;46498;49.968;7.754;2023-01-28T18:50:56;98214.00;;;-0.66;94.04
28606;BME280;46498;49.968;7.754;2023-01-28T18:56:02;98215.00;;;-0.65;94.56
28606;BME280;46498;49.968;7.754;2023-01-28T19:01:08;98221.00;;;-0.46;92.95
28606;BME280;46498;49.968;7.754;2023-01-28T19:06:09;98222.00;;;-0.61;93.08
28606;BME280;46498;49.968;7.754;2023-01-28T19:11:12;98214.00;;;-0.64;94.97
28606;BME280;46498;49.968;7.754;2023-01-28T19:16:12;98228.00;;;-0.42;97.66
28606;BME280;46498;49.968;7.754;2023-01-28T19:21:13;98225.00;;;-0.22;94.48
28606;BME280;46498;49.968;7.754;2023-01-28T19:26:14;98232.00;;;-0.44;94.03
28606;BME280;46498;49.968;7.754;2023-01-28T19:31:22;98238.00;;;-0.37;94.73
28606;BME280;46498;49.968;7.754;2023-01-28T19:36:25;98228.00;;;-0.47;94.12
28606;BME280;46498;49.968;7.754;2023-01-28T19:41:27;98238.00;;;-0.44;94.27
28606;BME280;46498;49.968;7.754;2023-01-28T19:46:28;98248.00;;;-0.63;96.14
28606;BME280;46498;49.968;7.754;2023-01-28T19:51:29;98244.00;;;-0.57;95.00
28606;BME280;46498;49.968;7.754;2023-01-28T19:56:31;98227.00;;;-0.63;93.79
28606;BME280;46498;49.968;7.754;2023-01-28T20:01:35;98226.00;;;-0.79;95.55
28606;BME280;46498;49.968;7.754;2023-01-28T20:06:37;98218.00;;;-1.00;97.60
28606;BME280;46498;49.968;7.754;2023-01-28T20:11:38;98247.00;;;-0.90;96.20
28606;BME280;46498;49.968;7.754;2023-01-28T20:16:39;98243.00;;;-0.88;96.18
28606;BME280;46498;49.968;7.754;2023-01-28T20:21:40;98254.00;;;-0.89;96.56
28606;BME280;46498;49.968;7.754;2023-01-28T20:26:42;98253.00;;;-0.97;97.77
28606;BME280;46498;49.968;7.754;2023-01-28T20:31:43;98265.00;;;-0.93;97.23
28606;BME280;46498;49.968;7.754;2023-01-28T20:36:45;98275.00;;;-0.83;97.42
28606;BME280;46498;49.968;7.754;2023-01-28T20:41:46;98267.00;;;-0.81;94.50
28606;BME280;46498;49.968;7.754;2023-01-28T20:46:46;98271.00;;;-0.82;95.24
28606;BME280;46498;49.968;7.754;2023-01-28T20:51:50;98262.00;;;-0.81;93.27
28606;BME280;46498;49.968;7.754;2023-01-28T20:56:52;98252.00;;;-0.84;95.25
28606;BME280;46498;49.968;7.754;2023-01-28T21:01:52;98251.00;;;-0.78;95.06
28606;BME280;46498;49.968;7.754;2023-01-28T21:06:54;98256.00;;;-0.92;94.55
28606;BME280;46498;49.968;7.754;2023-01-28T21:11:54;98254.00;;;-1.01;93.15
28606;BME280;46498;49.968;7.754;2023-01-28T21:16:55;98260.00;;;-1.03;91.48
28606;BME280;46498;49.968;7.754;2023-01-28T21:21:56;98262.00;;;-0.95;91.02
28606;BME280;46498;49.968;7.754;2023-01-28T21:26:57;98266.00;;;-1.17;90.92
28606;BME280;46498;49.968;7.754;2023-01-28T21:31:58;98267.00;;;-1.17;90.60
28606;BME280;46498;49.968;7.754;2023-01-28T21:36:59;98265.00;;;-1.40;92.29
28606;BME280;46498;49.968;7.754;2023-01-28T21:41:59;98253.00;;;-1.44;90.25
28606;BME280;46498;49.968;7.754;2023-01-28T21:47:00;98250.00;;;-1.31;90.98
28606;BME280;46498;49.968;7.754;2023-01-28T21:52:01;98247.00;;;-1.31;91.60
28606;BME280;46498;49.968;7.754;2023-01-28T21:57:02;98241.00;;;-1.14;90.33
28606;BME280;46498;49.968;7.754;2023-01-28T22:02:09;98243.00;;;-1.50;91.58
28606;BME280;46498;49.968;7.754;2023-01-28T22:07:12;98250.00;;;-1.49;91.55
28606;BME280;46498;49.968;7.754;2023-01-28T22:12:14;98242.00;;;-1.36;91.73
28606;BME280;46498;49.968;7.754;2023-01-28T22:17:15;98243.00;;;-1.54;92.11
28606;BME280;46498;49.968;7.754;2023-01-28T22:22:18;98239.00;;;-1.56;91.75
28606;BME280;46498;49.968;7.754;2023-01-28T22:27:18;98239.00;;;-1.66;91.46
28606;BME280;46498;49.968;7.754;2023-01-28T22:32:19;98239.00;;;-1.49;91.72
28606;BME280;46498;49.968;7.754;2023-01-28T22:37:20;98244.00;;;-0.74;100.00
28606;BME280;46498;49.968;7.754;2023-01-28T22:42:21;98247.00;;;-0.53;93.32
28606;BME280;46498;49.968;7.754;2023-01-28T22:47:22;98245.00;;;-0.85;91.99
28606;BME280;46498;49.968;7.754;2023-01-28T22:52:23;98247.00;;;-1.04;93.33
28606;BME280;46498;49.968;7.754;2023-01-28T22:57:23;98242.00;;;-1.11;92.48
28606;BME280;46498;49.968;7.754;2023-01-28T23:02:24;98243.00;;;-1.27;91.64
28606;BME280;46498;49.968;7.754;2023-01-28T23:07:25;98238.00;;;-1.43;93.88
28606;BME280;46498;49.968;7.754;2023-01-28T23:12:26;98224.00;;;-1.20;90.73
28606;BME280;46498;49.968;7.754;2023-01-28T23:17:27;98212.00;;;-1.31;89.15
28606;BME280;46498;49.968;7.754;2023-01-28T23:22:46;98206.00;;;-1.57;90.66
28606;BME280;46498;49.968;7.754;2023-01-28T23:28:06;98211.00;;;-1.59;90.61
28606;BME280;46498;49.968;7.754;2023-01-28T23:33:07;98217.00;;;-1.67;90.07
28606;BME280;46498;49.968;7.754;2023-01-28T23:38:08;98220.00;;;-1.65;92.23
28606;BME280;46498;49.968;7.754;2023-01-28T23:43:08;98215.00;;;-1.58;92.83
28606;BME280;46498;49.968;7.754;2023-01-28T23:48:09;98212.00;;;-1.39;89.55
28606;BME280;46498;49.968;7.754;2023-01-28T23:53:10;98211.00;;;-1.50;90.19
28606;BME280;46498;49.968;7.754;2023-01-28T23:58:13;98200.00;;;-1.88;91.97
